RJOC

Details ICAO RJOC (IZO)
Name IZUMO
Region Japan
Timezone Asia/Tokyo (UTC+9.0)
Plans Departing 14
Arriving 13
Stats Elevation 15 ft / 5 m (AMSL)
Location 35.413701° 132.889982°
Runways 1
Magnetic Variation 8.035° W
Sunrise 2018-05-25 19:58:48 UTC / 2018-05-26 04:58:48 Local
Sunset 2018-05-26 10:14:58 UTC / 2018-05-26 19:14:58 Local
Advertisement - Login to hide

Runways

ID Width Length Bearing (true) Bearing (mag) Surface Threshold Offset Overrun Length
07 148 ft / 45 m 6,557 ft / 1,999 m 59.33° 67.36° Asphalt 0 ft / 0 m 215 ft / 66 m
25 148 ft / 45 m 6,557 ft / 1,999 m 239.34° 247.37° Asphalt 0 ft / 0 m 215 ft / 66 m

Approach Navaids

Runway Type Ident Frequency Range Bearing (true) Bearing (mag) Slope Elevation
25 Localiser IXZ 111.70 MHz 18 nm / 33 km 239.32° 247.36° - 19 ft / 6 m (AMSL)
25 DME IXZ 111.70 MHz 18 nm / 33 km - - - 19 ft / 6 m (AMSL)

Map

Weather


0- 5 10 15 20 25 30 35+ Temperature / ° C

Clouds and Precipitation
Forecast for 2018-05-26 12:00 UTC. Updated an hour ago

Ground ~20,000 ft ~40,000 ft Winds

METAR

RJOC 261100Z 06003KT 020V160 CAVOK 20/13 Q1010

TAF

TAF RJOC 261105Z 2612/2718 17004KT CAVOK BECMG 2703/2706 04007KT BECMG 2709/2712 17004KT

Frequencies

Approach 120.10 MHz MIHO APP
Warning: Do not use this data for real-world aviation or navigation. No guarantee of current accuracy is given.